Time;durP1;ratioP1;P1;durP2;ratioP2;P2;SDS_P1;SDS_P2;PMS_P1;PMS_P2;Temp;Humidity;BMP_temperature;BMP_pressure;BME280_temperature;BME280_humidity;BME280_pressure;Samples;Min_cycle;Max_cycle;Signal;HPM_P1;HPM_P2
2022/03/01 00:00:37;;;;;;;6.36;2.07;;;;;;;;;;358966;148;863926;-55
2022/03/01 00:01:39;;;;;;;3.92;2.40;;;;;;;;;;358878;148;857096;-55
2022/03/01 00:02:42;;;;;;;3.32;2.34;;;;;;;;;;358926;148;856957;-56
2022/03/01 00:03:43;;;;;;;4.64;2.07;;;;;;;;;;358607;148;856530;-56
2022/03/01 00:04:45;;;;;;;3.08;2.14;;;;;;;;;;359092;148;856425;-56
2022/03/01 00:05:47;;;;;;;3.24;2.27;;;;;;;;;;358915;148;863980;-56
2022/03/01 00:06:48;;;;;;;3.51;1.81;;;;;;;;;;358707;147;856776;-55
2022/03/01 00:07:50;;;;;;;2.95;1.59;;;;;;;;;;358903;148;864199;-55
2022/03/01 00:08:53;;;;;;;3.10;1.84;;;;;;;;;;359225;147;856196;-55
2022/03/01 00:09:55;;;;;;;3.44;2.21;;;;;;;;;;358540;148;856220;-54
2022/03/01 00:10:56;;;;;;;3.59;2.47;;;;;;;;;;358601;147;857202;-55
2022/03/01 00:11:58;;;;;;;4.82;2.31;;;;;;;;;;358984;148;864100;-56
2022/03/01 00:12:59;;;;;;;7.23;2.16;;;;;;;;;;359056;148;857025;-55
2022/03/01 00:14:01;;;;;;;3.31;2.43;;;;;;;;;;358975;147;856215;-56
2022/03/01 00:15:03;;;;;;;3.79;2.29;;;;;;;;;;359066;148;856537;-55
2022/03/01 00:16:05;;;;;;;4.29;2.20;;;;;;;;;;358116;148;863612;-56
2022/03/01 00:17:06;;;;;;;3.20;1.71;;;;;;;;;;358622;148;856358;-56
2022/03/01 00:18:08;;;;;;;3.82;2.19;;;;;;;;;;358396;147;856276;-55
2022/03/01 00:19:10;;;;;;;2.96;2.11;;;;;;;;;;359169;148;856707;-56
2022/03/01 00:20:11;;;;;;;3.08;2.16;;;;;;;;;;358810;148;863568;-55
2022/03/01 00:21:13;;;;;;;4.71;1.96;;;;;;;;;;358580;147;863878;-57
2022/03/01 00:22:15;;;;;;;4.72;2.29;;;;;;;;;;353528;148;863887;-56
2022/03/01 00:23:17;;;;;;;2.92;2.09;;;;;;;;;;353208;149;856202;-56
2022/03/01 00:24:18;;;;;;;3.29;1.64;;;;;;;;;;352841;150;864012;-55
2022/03/01 00:25:20;;;;;;;3.35;2.29;;;;;;;;;;352205;149;861400;-55
2022/03/01 00:26:22;;;;;;;3.33;2.05;;;;;;;;;;352120;149;857285;-55
2022/03/01 00:27:23;;;;;;;3.58;2.01;;;;;;;;;;352625;149;857835;-56
2022/03/01 00:28:25;;;;;;;5.71;2.41;;;;;;;;;;352855;149;863769;-56
2022/03/01 00:29:26;;;;;;;3.16;1.69;;;;;;;;;;352756;149;856120;-56
2022/03/01 00:30:28;;;;;;;4.84;2.13;;;;;;;;;;352958;150;857099;-56
2022/03/01 00:31:29;;;;;;;3.36;2.06;;;;;;;;;;352471;149;856889;-56
2022/03/01 00:32:31;;;;;;;3.60;2.31;;;;;;;;;;352998;149;856836;-57
2022/03/01 00:33:32;;;;;;;2.94;2.15;;;;;;;;;;352333;150;864262;-56
2022/03/01 00:34:34;;;;;;;3.96;2.19;;;;;;;;;;353061;149;857647;-57
2022/03/01 00:35:36;;;;;;;2.75;1.94;;;;;;;;;;352195;150;856405;-56
2022/03/01 00:36:37;;;;;;;3.96;2.21;;;;;;;;;;353096;149;856541;-55
2022/03/01 00:37:39;;;;;;;4.09;2.54;;;;;;;;;;353102;149;864424;-56
2022/03/01 00:38:40;;;;;;;2.43;1.92;;;;;;;;;;352290;149;864028;-58
2022/03/01 00:39:42;;;;;;;2.81;1.89;;;;;;;;;;352748;149;856412;-58
2022/03/01 00:40:43;;;;;;;2.59;2.07;;;;;;;;;;352291;151;856644;-59
2022/03/01 00:41:45;;;;;;;3.10;1.71;;;;;;;;;;352833;149;859280;-55
2022/03/01 00:42:47;;;;;;;2.91;1.97;;;;;;;;;;352001;149;856411;-56
2022/03/01 00:43:48;;;;;;;2.98;1.74;;;;;;;;;;352553;149;856363;-55
2022/03/01 00:44:50;;;;;;;5.34;2.28;;;;;;;;;;353448;149;857931;-56
2022/03/01 00:45:52;;;;;;;2.99;1.91;;;;;;;;;;352720;150;856347;-56
2022/03/01 00:46:53;;;;;;;3.74;2.40;;;;;;;;;;352936;150;857395;-56
2022/03/01 00:47:55;;;;;;;2.03;1.80;;;;;;;;;;352935;149;856561;-56
2022/03/01 00:48:57;;;;;;;2.57;1.84;;;;;;;;;;352665;150;856631;-56
2022/03/01 00:49:58;;;;;;;3.39;2.47;;;;;;;;;;353050;149;858982;-56
2022/03/01 00:51:00;;;;;;;3.29;1.74;;;;;;;;;;353040;149;856265;-56
2022/03/01 00:52:02;;;;;;;3.40;2.21;;;;;;;;;;352776;150;856956;-56
2022/03/01 00:53:03;;;;;;;3.18;2.28;;;;;;;;;;352876;149;857385;-56
2022/03/01 00:54:05;;;;;;;1.89;1.73;;;;;;;;;;352726;150;863681;-56
2022/03/01 00:55:07;;;;;;;4.60;2.31;;;;;;;;;;353126;149;856298;-56
2022/03/01 00:56:09;;;;;;;3.62;2.21;;;;;;;;;;352971;149;856726;-55
2022/03/01 00:57:11;;;;;;;3.06;2.14;;;;;;;;;;353268;149;856492;-56
2022/03/01 00:58:14;;;;;;;2.51;1.81;;;;;;;;;;352022;150;862727;-56
2022/03/01 00:59:15;;;;;;;2.64;1.82;;;;;;;;;;352810;149;856358;-56
2022/03/01 01:00:18;;;;;;;4.43;2.41;;;;;;;;;;352637;149;856290;-61
2022/03/01 01:01:19;;;;;;;3.91;2.14;;;;;;;;;;352709;149;856152;-56
2022/03/01 01:02:21;;;;;;;2.56;2.15;;;;;;;;;;352861;150;863864;-55
2022/03/01 01:03:23;;;;;;;4.41;2.24;;;;;;;;;;352126;150;857097;-56
2022/03/01 01:04:24;;;;;;;3.76;2.40;;;;;;;;;;353367;149;862258;-55
2022/03/01 01:05:26;;;;;;;3.06;2.25;;;;;;;;;;352689;150;856240;-55
2022/03/01 01:06:27;;;;;;;4.76;2.27;;;;;;;;;;352644;149;863550;-56
2022/03/01 01:07:29;;;;;;;2.97;1.86;;;;;;;;;;352271;149;864211;-55
2022/03/01 01:08:30;;;;;;;2.95;2.00;;;;;;;;;;345986;152;856483;-56
2022/03/01 01:09:32;;;;;;;3.44;2.11;;;;;;;;;;342981;154;857322;-56
2022/03/01 01:10:34;;;;;;;3.01;2.29;;;;;;;;;;349014;153;863574;-56
2022/03/01 01:12:51;;;;;;;3.20;2.21;;;;;;;-0.36;56.74;101210.35;371775;142;882176;-55
2022/03/01 01:13:53;;;;;;;3.48;2.15;;;;;;;;;;360242;147;857780;-56
2022/03/01 01:14:55;;;;;;;4.29;2.21;;;;;;;;;;360384;146;858565;-56
2022/03/01 01:15:56;;;;;;;3.31;2.11;;;;;;;;;;361064;147;859613;-56
2022/03/01 01:16:58;;;;;;;3.59;2.29;;;;;;;;;;360090;147;857452;-54
2022/03/01 01:18:00;;;;;;;3.83;2.12;;;;;;;;;;359693;147;857759;-55
2022/03/01 01:19:01;;;;;;;2.89;2.30;;;;;;;;;;360585;147;864187;-55
2022/03/01 01:20:04;;;;;;;3.66;2.03;;;;;;;;;;360664;147;857304;-55
2022/03/01 01:21:05;;;;;;;3.76;2.49;;;;;;;;;;359649;147;865843;-55
2022/03/01 01:23:27;;;;;;;3.62;2.24;;;;;;;;;;361239;147;863749;-54
2022/03/01 01:24:28;;;;;;;4.04;2.36;;;;;;;;;;360763;147;856576;-56
2022/03/01 01:25:30;;;;;;;3.52;2.44;;;;;;;;;;360017;147;864447;-55
2022/03/01 01:26:32;;;;;;;4.38;2.18;;;;;;;;;;361186;147;856997;-55
2022/03/01 01:27:33;;;;;;;4.31;2.52;;;;;;;;;;360584;147;863774;-56
2022/03/01 01:28:35;;;;;;;2.23;1.88;;;;;;;;;;359927;147;856726;-56
2022/03/01 01:29:36;;;;;;;4.11;2.06;;;;;;;;;;360106;147;863648;-55
2022/03/01 01:30:38;;;;;;;3.07;2.26;;;;;;;;;;360091;147;857083;-56
2022/03/01 01:31:39;;;;;;;3.29;2.39;;;;;;;;;;360777;147;863816;-55
2022/03/01 01:32:42;;;;;;;3.47;2.57;;;;;;;;;;360629;147;856389;-55
2022/03/01 01:33:43;;;;;;;4.97;2.19;;;;;;;;;;360524;147;864149;-55
2022/03/01 01:34:45;;;;;;;3.34;2.59;;;;;;;;;;359555;147;856418;-55
2022/03/01 01:35:47;;;;;;;3.34;2.04;;;;;;;;;;360085;147;864411;-54
2022/03/01 01:36:48;;;;;;;4.63;2.31;;;;;;;;;;360168;147;863541;-55
2022/03/01 01:37:50;;;;;;;3.04;2.07;;;;;;;;;;361614;147;856343;-55
2022/03/01 01:38:52;;;;;;;4.16;2.17;;;;;;;;;;360779;147;861443;-55
2022/03/01 01:39:53;;;;;;;4.53;2.62;;;;;;;;;;361345;147;863795;-56
2022/03/01 01:40:55;;;;;;;3.83;2.48;;;;;;;;;;360538;147;856155;-55
2022/03/01 01:41:57;;;;;;;3.66;2.28;;;;;;;;;;360645;147;863767;-55
2022/03/01 01:42:58;;;;;;;5.26;2.69;;;;;;;;;;359461;147;863766;-55
2022/03/01 01:44:02;;;;;;;3.34;2.10;;;;;;;;;;360869;147;857004;-55
2022/03/01 01:45:04;;;;;;;2.78;1.92;;;;;;;;;;360317;147;863643;-55
2022/03/01 01:46:05;;;;;;;2.17;1.60;;;;;;;;;;360031;147;856764;-55
2022/03/01 01:47:07;;;;;;;5.58;2.27;;;;;;;;;;361708;147;856275;-55
2022/03/01 01:48:09;;;;;;;3.29;2.09;;;;;;;;;;360535;147;856313;-55
2022/03/01 01:49:10;;;;;;;5.09;2.44;;;;;;;;;;360816;147;864156;-55
2022/03/01 01:50:12;;;;;;;5.40;2.80;;;;;;;;;;360814;147;856513;-55
2022/03/01 01:51:13;;;;;;;3.86;2.49;;;;;;;;;;358004;147;863890;-55
2022/03/01 01:52:15;;;;;;;3.98;2.58;;;;;;;;;;360560;147;864201;-55
2022/03/01 01:53:17;;;;;;;4.64;2.20;;;;;;;;;;360860;147;864381;-55
2022/03/01 01:54:18;;;;;;;3.33;2.15;;;;;;;;;;360328;147;857508;-56
2022/03/01 01:55:20;;;;;;;4.31;2.48;;;;;;;;;;359867;147;856159;-55
2022/03/01 01:56:22;;;;;;;6.51;2.46;;;;;;;;;;360314;147;856208;-55
2022/03/01 01:57:23;;;;;;;4.58;2.50;;;;;;;;;;360311;147;856516;-56
2022/03/01 01:58:25;;;;;;;5.61;2.74;;;;;;;;;;361473;147;856242;-55
2022/03/01 01:59:27;;;;;;;3.89;2.38;;;;;;;;;;361066;147;864476;-55
2022/03/01 02:00:29;;;;;;;3.67;2.42;;;;;;;;;;360403;147;856995;-56
2022/03/01 02:01:31;;;;;;;4.10;2.31;;;;;;;;;;361919;147;856787;-56
2022/03/01 02:02:32;;;;;;;5.52;2.68;;;;;;;;;;360131;147;856235;-56
2022/03/01 02:03:34;;;;;;;4.25;2.35;;;;;;;;;;360708;147;861519;-55
2022/03/01 02:04:36;;;;;;;4.21;2.31;;;;;;;;;;360502;147;864284;-56
2022/03/01 02:05:38;;;;;;;3.68;2.55;;;;;;;;;;351647;152;856599;-56
2022/03/01 02:06:49;;;;;;;3.76;2.47;;;;;;;;;;360475;147;864095;-56
2022/03/01 02:07:50;;;;;;;4.62;2.62;;;;;;;;;;361026;147;857194;-56
2022/03/01 02:08:52;;;;;;;4.41;2.83;;;;;;;;;;360376;147;857307;-55
2022/03/01 02:09:53;;;;;;;6.03;3.06;;;;;;;;;;359965;147;863805;-55
2022/03/01 02:10:55;;;;;;;3.39;2.32;;;;;;;;;;359699;147;863909;-56
2022/03/01 02:11:57;;;;;;;4.67;2.65;;;;;;;;;;360290;147;856695;-56
2022/03/01 02:12:59;;;;;;;4.42;2.54;;;;;;;;;;360579;146;856412;-55
2022/03/01 02:14:00;;;;;;;5.30;2.71;;;;;;;;;;361037;147;856250;-55
2022/03/01 02:15:02;;;;;;;4.67;2.78;;;;;;;;;;360527;147;856517;-55
2022/03/01 02:16:04;;;;;;;5.88;2.77;;;;;;;;;;361730;147;864010;-55
2022/03/01 02:17:06;;;;;;;5.76;2.64;;;;;;;;;;360645;147;856884;-56
2022/03/01 02:18:08;;;;;;;7.07;3.69;;;;;;;;;;347588;153;863722;-55
2022/03/01 02:19:13;;;;;;;3.46;2.41;;;;;;;;;;361064;147;856772;-56
2022/03/01 02:20:18;;;;;;;3.81;2.66;;;;;;;;;;360386;147;863960;-55
2022/03/01 02:21:20;;;;;;;6.30;3.02;;;;;;;;;;360637;147;856795;-56
2022/03/01 02:22:22;;;;;;;4.38;2.67;;;;;;;;;;360639;147;856611;-55
2022/03/01 02:23:24;;;;;;;3.59;2.57;;;;;;;;;;360716;147;856168;-56
2022/03/01 02:24:29;;;;;;;4.71;2.91;;;;;;;;;;360833;147;863728;-56
2022/03/01 02:25:30;;;;;;;5.93;3.04;;;;;;;;;;359819;147;856910;-56
2022/03/01 02:26:32;;;;;;;5.16;2.86;;;;;;;;;;361464;147;856760;-56
2022/03/01 02:27:33;;;;;;;4.91;2.97;;;;;;;;;;359743;147;863817;-56
2022/03/01 02:28:35;;;;;;;4.89;2.85;;;;;;;;;;359730;147;856141;-55
2022/03/01 02:29:36;;;;;;;4.64;2.73;;;;;;;;;;361267;147;857384;-56
2022/03/01 02:30:38;;;;;;;3.99;2.58;;;;;;;;;;360524;147;861075;-56
2022/03/01 02:31:40;;;;;;;5.11;3.13;;;;;;;;;;360035;147;856411;-55
2022/03/01 02:32:41;;;;;;;6.84;3.18;;;;;;;;;;359109;147;859943;-56
2022/03/01 02:33:43;;;;;;;5.64;2.67;;;;;;;;;;359963;147;864467;-55
2022/03/01 02:34:44;;;;;;;4.34;2.77;;;;;;;;;;359603;147;856375;-55
2022/03/01 02:35:46;;;;;;;6.86;2.94;;;;;;;;;;360274;147;859066;-55
2022/03/01 02:36:47;;;;;;;4.46;2.95;;;;;;;;;;360041;147;856873;-55
2022/03/01 02:37:49;;;;;;;6.26;3.16;;;;;;;;;;360199;147;863668;-56
2022/03/01 02:38:51;;;;;;;8.21;3.09;;;;;;;;;;360330;147;856724;-55
2022/03/01 02:39:53;;;;;;;4.84;3.05;;;;;;;;;;347087;153;863751;-55
2022/03/01 02:40:54;;;;;;;6.07;3.29;;;;;;;;;;360602;147;856483;-55
2022/03/01 02:41:56;;;;;;;3.66;2.24;;;;;;;;;;360028;147;856248;-55
2022/03/01 02:42:57;;;;;;;4.46;3.01;;;;;;;;;;359439;147;859856;-55
2022/03/01 02:44:02;;;;;;;5.44;3.15;;;;;;;;;;360662;147;860937;-55
2022/03/01 02:45:03;;;;;;;4.96;3.29;;;;;;;;;;360003;147;859048;-55
2022/03/01 02:46:06;;;;;;;6.37;3.34;;;;;;;;;;359595;147;856209;-55
2022/03/01 02:47:07;;;;;;;4.56;2.91;;;;;;;;;;359761;147;856116;-55
2022/03/01 02:48:09;;;;;;;7.10;3.49;;;;;;;;;;360009;147;864355;-54
2022/03/01 02:49:10;;;;;;;4.48;3.04;;;;;;;;;;360587;147;864012;-55
2022/03/01 02:50:12;;;;;;;3.69;2.74;;;;;;;;;;360262;147;863921;-55
2022/03/01 02:51:14;;;;;;;4.76;3.21;;;;;;;;;;360049;147;863842;-55
2022/03/01 02:52:15;;;;;;;6.76;3.09;;;;;;;;;;360397;147;864294;-55
2022/03/01 02:53:17;;;;;;;7.24;3.46;;;;;;;;;;361064;147;856998;-56
2022/03/01 02:54:18;;;;;;;13.52;3.56;;;;;;;;;;360434;147;859079;-56
2022/03/01 02:55:20;;;;;;;5.31;3.00;;;;;;;;;;360427;147;863821;-55
2022/03/01 02:56:22;;;;;;;8.02;3.37;;;;;;;;;;360156;147;856135;-56
2022/03/01 02:57:24;;;;;;;6.14;3.44;;;;;;;;;;360790;147;856608;-55
2022/03/01 02:58:26;;;;;;;6.16;2.78;;;;;;;;;;360321;147;864470;-56
2022/03/01 02:59:28;;;;;;;5.99;3.60;;;;;;;;;;359105;147;856129;-56
2022/03/01 03:00:30;;;;;;;5.37;3.61;;;;;;;;;;360455;147;856764;-56
2022/03/01 03:01:32;;;;;;;5.13;3.42;;;;;;;;;;358898;147;856199;-56
2022/03/01 03:02:33;;;;;;;6.64;2.96;;;;;;;;;;360343;147;856274;-56
2022/03/01 03:03:35;;;;;;;6.59;4.13;;;;;;;;;;360661;147;863858;-55
2022/03/01 03:04:36;;;;;;;6.24;3.69;;;;;;;;;;360760;147;856605;-56
2022/03/01 03:05:38;;;;;;;5.51;3.67;;;;;;;;;;360117;147;857425;-55
2022/03/01 03:06:40;;;;;;;5.21;3.39;;;;;;;;;;360586;147;857726;-55
2022/03/01 03:07:42;;;;;;;6.18;3.94;;;;;;;;;;360715;147;856387;-55
2022/03/01 03:08:44;;;;;;;6.09;3.29;;;;;;;;;;360032;147;857843;-57
2022/03/01 03:09:45;;;;;;;8.51;3.64;;;;;;;;;;360823;147;856748;-55
2022/03/01 03:10:47;;;;;;;8.06;3.70;;;;;;;;;;360195;147;863851;-55
2022/03/01 03:11:48;;;;;;;5.34;2.64;;;;;;;;;;360003;147;856269;-55
2022/03/01 03:12:50;;;;;;;6.11;3.18;;;;;;;;;;359512;147;859024;-55
2022/03/01 03:13:52;;;;;;;5.76;3.36;;;;;;;;;;359044;147;864502;-56
2022/03/01 03:14:53;;;;;;;5.57;3.46;;;;;;;;;;359173;147;858524;-56
2022/03/01 03:15:55;;;;;;;6.03;3.83;;;;;;;;;;360197;147;863652;-56
2022/03/01 03:16:57;;;;;;;8.44;3.59;;;;;;;;;;350017;152;856664;-55
2022/03/01 03:17:58;;;;;;;6.15;3.63;;;;;;;;;;345742;153;863739;-55
2022/03/01 03:19:00;;;;;;;7.73;3.89;;;;;;;;;;353086;150;856155;-56
2022/03/01 03:20:02;;;;;;;6.09;3.34;;;;;;;;;;343151;153;864081;-55
2022/03/01 03:21:04;;;;;;;7.25;4.20;;;;;;;;;;349815;152;856719;-55
2022/03/01 03:22:06;;;;;;;6.43;3.36;;;;;;;;;;350068;153;856592;-56
2022/03/01 03:23:07;;;;;;;5.17;3.85;;;;;;;;;;344769;153;857706;-55
2022/03/01 03:24:09;;;;;;;4.79;2.68;;;;;;;;;;344251;153;856669;-55
2022/03/01 03:25:11;;;;;;;7.31;3.54;;;;;;;;;;346078;153;863876;-57
2022/03/01 03:26:13;;;;;;;6.49;3.73;;;;;;;;;;343924;153;856190;-55
2022/03/01 03:27:14;;;;;;;4.97;3.06;;;;;;;;;;345235;153;856929;-55
2022/03/01 03:28:16;;;;;;;5.37;3.54;;;;;;;;;;344850;153;856415;-56
2022/03/01 03:29:18;;;;;;;6.49;3.62;;;;;;;;;;350902;150;856316;-55
2022/03/01 03:30:21;;;;;;;6.19;3.58;;;;;;;;;;345530;153;864259;-55
2022/03/01 03:31:22;;;;;;;8.45;4.16;;;;;;;;;;351593;150;856560;-55
2022/03/01 03:32:24;;;;;;;6.04;3.70;;;;;;;;;;352529;150;864535;-55
2022/03/01 03:33:25;;;;;;;6.79;3.74;;;;;;;;;;346652;153;856260;-55
2022/03/01 03:34:27;;;;;;;6.32;3.59;;;;;;;;;;344474;153;863745;-56
2022/03/01 03:35:29;;;;;;;7.20;3.45;;;;;;;;;;346177;153;863797;-55
2022/03/01 03:36:30;;;;;;;5.49;3.32;;;;;;;;;;344425;154;856887;-55
2022/03/01 03:37:32;;;;;;;5.08;3.46;;;;;;;;;;346415;153;863689;-56
2022/03/01 03:38:34;;;;;;;4.69;3.17;;;;;;;;;;343646;156;864817;-55
2022/03/01 03:39:35;;;;;;;7.68;3.09;;;;;;;;;;349604;153;856207;-55
2022/03/01 03:40:37;;;;;;;7.61;3.74;;;;;;;;;;352148;150;856313;-54
2022/03/01 03:41:38;;;;;;;5.40;3.79;;;;;;;;;;350636;150;864078;-55
2022/03/01 03:42:41;;;;;;;4.42;3.00;;;;;;;;;;347207;153;863763;-55
2022/03/01 03:43:43;;;;;;;10.01;4.13;;;;;;;;;;345634;153;856242;-55
2022/03/01 03:44:44;;;;;;;6.94;3.59;;;;;;;;;;344859;153;856829;-55
2022/03/01 03:45:46;;;;;;;6.45;3.91;;;;;;;;;;343009;155;864558;-55
2022/03/01 03:46:48;;;;;;;5.07;3.36;;;;;;;;;;349998;153;860026;-55
2022/03/01 03:47:49;;;;;;;6.01;3.59;;;;;;;;;;344302;153;863747;-57
2022/03/01 03:48:52;;;;;;;7.18;3.76;;;;;;;;;;352381;150;863717;-55
2022/03/01 03:49:53;;;;;;;7.09;3.75;;;;;;;;;;350093;151;863831;-55
2022/03/01 03:50:55;;;;;;;6.64;3.91;;;;;;;;;;349599;151;856245;-55
2022/03/01 03:51:57;;;;;;;4.98;3.45;;;;;;;;;;343744;153;864665;-55
2022/03/01 03:52:58;;;;;;;6.33;3.67;;;;;;;;;;338576;156;856795;-55
2022/03/01 03:54:00;;;;;;;6.59;3.49;;;;;;;;;;351877;150;856264;-55
2022/03/01 03:55:02;;;;;;;4.75;3.49;;;;;;;-1.18;0.00;151230.11;358500;147;857408;-55
2022/03/01 03:56:04;;;;;;;6.15;3.96;;;;;;;;;;359252;147;856627;-55
2022/03/01 03:57:08;;;;;;;5.98;3.84;;;;;;;;;;358740;147;856242;-55
2022/03/01 03:58:09;;;;;;;6.12;3.51;;;;;;;;;;359313;147;856329;-55
2022/03/01 03:59:11;;;;;;;5.01;3.80;;;;;;;;;;359295;147;857339;-56
2022/03/01 04:00:17;;;;;;;6.74;3.98;;;;;;;;;;359174;147;856552;-55
2022/03/01 04:01:18;;;;;;;6.97;4.06;;;;;;;;;;359296;147;856952;-55
2022/03/01 04:02:20;;;;;;;6.27;3.49;;;;;;;;;;357380;147;856651;-55
2022/03/01 04:03:23;;;;;;;5.92;3.64;;;;;;;;;;359605;147;863796;-55
2022/03/01 04:04:25;;;;;;;4.96;3.42;;;;;;;;;;359604;147;856690;-55
2022/03/01 04:05:26;;;;;;;6.14;3.54;;;;;;;;;;359126;147;856557;-56
2022/03/01 04:06:28;;;;;;;5.14;3.76;;;;;;;;;;358529;147;863687;-55
2022/03/01 04:07:30;;;;;;;6.16;3.44;;;;;;;;;;358922;147;857517;-56
2022/03/01 04:08:31;;;;;;;5.51;3.58;;;;;;;;;;358780;147;856296;-56
2022/03/01 04:09:34;;;;;;;5.84;3.66;;;;;;;;;;358593;147;856076;-56
2022/03/01 04:10:35;;;;;;;5.61;3.57;;;;;;;;;;359486;147;861499;-56
2022/03/01 04:11:37;;;;;;;7.04;3.29;;;;;;;;;;359639;147;856030;-56
2022/03/01 04:12:38;;;;;;;5.19;3.34;;;;;;;;;;358175;147;864542;-56
2022/03/01 04:13:40;;;;;;;4.75;3.04;;;;;;;;;;358546;147;857074;-55
2022/03/01 04:14:42;;;;;;;4.63;3.26;;;;;;;;;;361162;147;864289;-55
2022/03/01 04:15:43;;;;;;;4.97;3.23;;;;;;;;;;359479;147;857073;-55
2022/03/01 04:16:45;;;;;;;6.44;3.96;;;;;;;;;;360452;147;856509;-54
2022/03/01 04:17:47;;;;;;;4.49;3.05;;;;;;;;;;360490;147;863925;-55
2022/03/01 04:18:48;;;;;;;4.94;3.37;;;;;;;;;;360262;147;863864;-55
2022/03/01 04:19:51;;;;;;;6.42;3.23;;;;;;;;;;360819;147;859970;-55
2022/03/01 04:20:52;;;;;;;5.51;3.65;;;;;;;;;;360099;147;856335;-55
2022/03/01 04:21:54;;;;;;;5.41;3.04;;;;;;;;;;359467;147;856539;-55
2022/03/01 04:22:55;;;;;;;4.79;3.09;;;;;;;;;;359944;147;860434;-55
2022/03/01 04:23:57;;;;;;;6.67;3.19;;;;;;;;;;358514;147;860399;-56
2022/03/01 04:24:58;;;;;;;5.07;3.06;;;;;;;;;;360637;147;859855;-56
2022/03/01 04:26:00;;;;;;;5.44;2.82;;;;;;;;;;360423;147;856647;-55
2022/03/01 04:27:02;;;;;;;4.94;3.04;;;;;;;;;;351165;151;864130;-56
2022/03/01 04:28:04;;;;;;;5.15;3.06;;;;;;;;;;361332;147;856235;-54
2022/03/01 04:29:06;;;;;;;7.00;3.26;;;;;;;;;;359743;147;863626;-54
2022/03/01 04:30:08;;;;;;;4.23;2.89;;;;;;;;;;359630;147;863919;-55
2022/03/01 04:31:10;;;;;;;4.21;2.57;;;;;;;;;;360595;147;856618;-55
2022/03/01 04:32:12;;;;;;;4.66;3.27;;;;;;;;;;360817;147;856599;-58
2022/03/01 04:33:13;;;;;;;4.36;2.92;;;;;;;;;;359541;147;863880;-56
2022/03/01 04:34:15;;;;;;;5.05;3.14;;;;;;;;;;359565;147;857005;-55
2022/03/01 04:35:16;;;;;;;4.62;3.04;;;;;;;;;;360709;147;856778;-54
2022/03/01 04:36:18;;;;;;;6.06;2.81;;;;;;;;;;360551;147;857961;-55
2022/03/01 04:37:20;;;;;;;3.46;2.71;;;;;;;;;;360858;147;864291;-55
2022/03/01 04:38:25;;;;;;;5.54;2.88;;;;;;;;;;360400;147;862066;-55
2022/03/01 04:39:25;;;;;;;4.01;2.51;;;;;;;;;;360592;147;863690;-54
2022/03/01 04:40:27;;;;;;;4.20;2.83;;;;;;;;;;360435;147;856883;-55
2022/03/01 04:41:28;;;;;;;5.50;2.84;;;;;;;;;;360876;147;857267;-54
2022/03/01 04:42:30;;;;;;;4.99;2.78;;;;;;;;;;360620;147;862007;-54
2022/03/01 04:43:32;;;;;;;5.17;2.52;;;;;;;;;;360669;147;858918;-55
2022/03/01 04:44:34;;;;;;;5.31;2.85;;;;;;;;;;353051;150;856370;-58
2022/03/01 04:45:35;;;;;;;3.58;2.34;;;;;;;;;;352655;147;856109;-54
2022/03/01 04:46:37;;;;;;;4.92;2.87;;;;;;;;;;360360;147;863721;-56
2022/03/01 04:47:38;;;;;;;4.56;2.80;;;;;;;;;;360127;147;863891;-56
2022/03/01 04:48:40;;;;;;;4.82;2.72;;;;;;;;;;361136;147;864064;-56
2022/03/01 04:49:41;;;;;;;4.54;2.66;;;;;;;;;;347793;153;857046;-55
2022/03/01 04:50:43;;;;;;;4.58;3.02;;;;;;;;;;360462;147;858775;-55
2022/03/01 04:51:45;;;;;;;4.24;2.85;;;;;;;;;;359334;147;863901;-55
2022/03/01 04:52:46;;;;;;;5.56;2.78;;;;;;;;;;360655;147;858668;-54
2022/03/01 04:53:48;;;;;;;5.11;2.52;;;;;;;;;;360352;147;863916;-58
2022/03/01 04:54:50;;;;;;;4.60;2.66;;;;;;;;;;351261;151;863691;-56
2022/03/01 04:55:51;;;;;;;3.30;2.71;;;;;;;;;;360397;147;856622;-56
2022/03/01 04:56:53;;;;;;;4.27;2.52;;;;;;;;;;360280;147;856182;-57
2022/03/01 04:57:55;;;;;;;3.76;2.51;;;;;;;;;;360165;147;863876;-56
2022/03/01 04:58:56;;;;;;;4.99;2.85;;;;;;;;;;358954;147;863722;-58
2022/03/01 04:59:58;;;;;;;4.81;2.84;;;;;;;;;;360055;147;856768;-56
2022/03/01 05:01:01;;;;;;;5.36;3.06;;;;;;;;;;360447;147;863684;-57
2022/03/01 05:02:02;;;;;;;4.34;2.82;;;;;;;;;;359598;147;863644;-57
2022/03/01 05:03:04;;;;;;;4.74;2.90;;;;;;;;;;360331;147;856475;-59
2022/03/01 05:04:06;;;;;;;3.36;2.46;;;;;;;;;;351277;152;863895;-56
2022/03/01 05:05:10;;;;;;;4.52;2.75;;;;;;;;;;360575;147;856235;-55
2022/03/01 05:06:11;;;;;;;5.15;2.72;;;;;;;;;;360082;147;858538;-59
2022/03/01 05:07:12;;;;;;;4.86;2.61;;;;;;;;;;360481;147;863821;-56
2022/03/01 05:08:14;;;;;;;4.46;2.47;;;;;;;;;;360009;147;864389;-55
2022/03/01 05:09:16;;;;;;;5.09;2.69;;;;;;;;;;360400;147;861349;-56
2022/03/01 05:10:18;;;;;;;5.85;2.88;;;;;;;;;;360576;147;864191;-55
2022/03/01 05:11:21;;;;;;;4.35;2.86;;;;;;;;;;360976;147;856651;-55
2022/03/01 05:12:23;;;;;;;3.41;2.38;;;;;;;;;;360523;147;856465;-55
2022/03/01 05:13:24;;;;;;;4.66;2.59;;;;;;;;;;359082;147;857180;-56
2022/03/01 05:14:26;;;;;;;4.09;2.64;;;;;;;;;;350855;151;864179;-56
2022/03/01 05:15:28;;;;;;;5.13;3.05;;;;;;;;;;361084;147;856098;-58
2022/03/01 05:16:30;;;;;;;4.04;2.82;;;;;;;;;;360161;147;856109;-58
2022/03/01 05:17:31;;;;;;;5.29;2.83;;;;;;;;;;360773;147;863737;-56
2022/03/01 05:18:33;;;;;;;3.26;2.54;;;;;;;;;;361068;147;862202;-55
2022/03/01 05:19:34;;;;;;;9.26;3.31;;;;;;;;;;360350;147;856540;-56
2022/03/01 05:20:36;;;;;;;3.86;2.61;;;;;;;;;;360115;147;863671;-57
2022/03/01 05:21:37;;;;;;;4.09;2.41;;;;;;;;;;360881;147;856858;-56
2022/03/01 05:22:39;;;;;;;5.41;2.74;;;;;;;;;;360226;147;860993;-56
2022/03/01 05:23:41;;;;;;;3.51;2.68;;;;;;;;;;360076;147;863798;-55
2022/03/01 05:24:43;;;;;;;5.01;2.66;;;;;;;;;;360685;147;856382;-57
2022/03/01 05:25:44;;;;;;;4.40;2.68;;;;;;;;;;360465;147;863958;-57
2022/03/01 05:26:46;;;;;;;4.12;2.68;;;;;;;;;;359814;147;856342;-55
2022/03/01 05:27:48;;;;;;;3.39;2.54;;;;;;;;;;360528;147;858547;-54
2022/03/01 05:28:49;;;;;;;3.24;2.61;;;;;;;;;;360165;147;860827;-55
2022/03/01 05:29:51;;;;;;;4.39;2.50;;;;;;;;;;359661;147;856052;-55
2022/03/01 05:30:52;;;;;;;3.39;2.66;;;;;;;;;;360570;147;856137;-55
2022/03/01 05:31:54;;;;;;;3.19;2.61;;;;;;;;;;360314;147;856240;-55
2022/03/01 05:32:56;;;;;;;4.61;2.90;;;;;;;;;;360325;147;861912;-55
2022/03/01 05:33:58;;;;;;;4.01;2.58;;;;;;;;;;360117;147;856245;-55
2022/03/01 05:34:59;;;;;;;5.08;2.87;;;;;;;;;;360299;147;856328;-55
2022/03/01 05:36:01;;;;;;;4.49;2.72;;;;;;;;;;360017;147;861369;-55
2022/03/01 05:37:03;;;;;;;5.06;2.76;;;;;;;;;;360476;147;856659;-55
2022/03/01 05:38:07;;;;;;;3.83;2.43;;;;;;;;;;361335;147;863932;-56
2022/03/01 05:39:08;;;;;;;5.02;2.65;;;;;;;;;;361535;147;856130;-55
2022/03/01 05:40:09;;;;;;;6.26;3.20;;;;;;;;;;360630;147;857647;-54
2022/03/01 05:41:11;;;;;;;5.62;2.99;;;;;;;;;;360379;147;856248;-55
2022/03/01 05:42:13;;;;;;;3.69;2.44;;;;;;;;;;360446;147;863812;-54
2022/03/01 05:43:15;;;;;;;3.01;2.19;;;;;;;;;;360245;147;856252;-55
2022/03/01 05:44:16;;;;;;;2.89;2.21;;;;;;;;;;359573;147;864256;-54
2022/03/01 05:45:18;;;;;;;4.44;2.51;;;;;;;;;;360551;147;863514;-55
2022/03/01 05:46:20;;;;;;;4.22;2.63;;;;;;;;;;359747;147;856681;-55
2022/03/01 05:47:22;;;;;;;3.86;2.35;;;;;;;;;;360072;147;856284;-55
2022/03/01 05:48:23;;;;;;;3.26;2.31;;;;;;;;;;361313;147;860789;-55
2022/03/01 05:49:25;;;;;;;4.52;2.84;;;;;;;;;;360651;147;863803;-55
2022/03/01 05:50:26;;;;;;;3.94;2.46;;;;;;;;;;359405;147;856723;-55
2022/03/01 05:51:28;;;;;;;3.76;2.65;;;;;;;;;;360810;147;857623;-54
2022/03/01 05:52:29;;;;;;;3.66;2.34;;;;;;;;;;360795;147;864219;-52
2022/03/01 05:53:31;;;;;;;3.54;2.49;;;;;;;;;;360151;147;856626;-54
2022/03/01 05:54:32;;;;;;;4.92;2.62;;;;;;;;;;360477;147;857011;-53
2022/03/01 05:55:34;;;;;;;4.41;2.36;;;;;;;;;;360555;147;856689;-55
2022/03/01 05:56:36;;;;;;;4.44;2.45;;;;;;;;;;360846;147;859068;-54
2022/03/01 05:57:37;;;;;;;3.69;2.19;;;;;;;;;;360748;147;856650;-55
2022/03/01 05:58:39;;;;;;;5.05;2.81;;;;;;;;;;360683;147;863953;-54
2022/03/01 05:59:40;;;;;;;2.83;1.98;;;;;;;;;;360141;147;862233;-53
2022/03/01 06:00:42;;;;;;;4.31;2.92;;;;;;;;;;360711;147;856738;-55
2022/03/01 06:01:44;;;;;;;3.34;2.22;;;;;;;;;;360446;147;862357;-53
2022/03/01 06:02:45;;;;;;;5.51;3.04;;;;;;;;;;359754;147;863024;-54
2022/03/01 06:03:47;;;;;;;4.86;3.13;;;;;;;;;;359178;147;856378;-54
2022/03/01 06:04:49;;;;;;;4.12;2.69;;;;;;;;;;347856;153;857177;-55
2022/03/01 06:05:50;;;;;;;3.82;2.48;;;;;;;;;;359915;147;863729;-54
2022/03/01 06:06:52;;;;;;;5.10;2.89;;;;;;;;;;360771;147;856147;-54